Toppenish, WA (98948)

1:31 PM PDT on October 01, 2014 (GMT -0700)
Fire Station #9 | Change Station
CLOSE
Current Station
Personal Weather Station
Location: Toppenish, WA
Elevation: 765 ft
Nearby Weather Stations

Elev 765 ft 46.38 °N, 120.32 °W | Updated 8 minutes ago

Clear
Clear
67.0 °F
Feels Like 67.0 °F
N
2.0
Wind Variable Wind from ESE
Gusts 10.0 mph

Today
High -- | Low -- °F
--% Chance of Precip.
Yesterday
High -- | Low -- °F
Precip. -- in
6:59 AM 6:40 PM
Waxing Crescent, 51% visible
Pressure 30.11 in
Visibility 10.0 miles
Clouds Clear
Dew Point 41 °F
Humidity 39%
Rainfall 0.00 in
Snow Depth 0 in , 0 in , 0 in
UV 5 out of 12
Pollen 1.90 out of 12
Air Quality Not available.
Flu Activity Not available.
METAR KYKM 011953Z 16005KT 10SM CLR 20/03 A3011 RMK AO2 SLP195 T02000028

More Conditions Fewer Conditions

Pressure 30.11 in
Visibility 10.0 miles
Clouds Clear
Dew Point 41 °F
Humidity 39%
Rainfall 0.00 in
Snow Depth 0 in , 0 in , 0 in
UV 5 out of 12
Pollen 1.90 out of 12
Air Quality Not available.
Flu Activity Not available.
METAR KYKM 011953Z 16005KT 10SM CLR 20/03 A3011 RMK AO2 SLP195 T02000028

More Conditions Fewer Conditions

10-Day Weather Forecast

Almanac

Astronomy

Oct. 01, 2014 Rise Set
Actual Time 6:59 AM PDT 6:40 PM PDT
Civil Twilight 6:29 AM PDT 7:10 PM PDT
Nautical Twilight 5:55 AM PDT 7:45 PM PDT
Astronomical Twilight 5:19 AM PDT 8:21 PM PDT
Moon 2:19 PM PDT No Moon Set
Length of Visible Light 12h 40m
Length of Day
11h 41m
Tomorrow will be 3m 14s shorter.
Waxing Crescent, 51% of the Moon is Illuminated
Today
Waxing Crescent
Oct 8
Full
Oct 15
Last Quarter
Oct 23
New
Oct 30
First Quarter

Today's Extremes

State Highs State Lows

Community

WunderPhotos

Upload Photos

1,758,037 photos uploaded!

WunderBlogs® & News

By Dr. Jeff Masters
Director of Meteorology, Weather Underground
By Kari Strenfel
Meteorologist, Weather Underground
By Christopher C. Burt
Weather Historian, Weather Underground
October 1, 2014
October 1, 2014
October 1, 2014

Nearby

Snow Depth

Station Depth Elevation
Beaver Pass 0 in 3620 ft
Meadows Pass 0 in 3500 ft
White Pass E.S. 0 in 4500 ft
Pope Ridge 0 in 3540 ft
Stampede Pass 0 in 3860 ft

Earthquake Activity

City Distance Mag. Time & Date
No recent earthquake activity has been reported nearby.
Minimum magnitude displayed is 2.5.

Coastal Water Temperatures

Place Temperature
No Stations Reporting

Nearby Weather Stations